createdAt,value
2022-10-23T00:01:23.416Z,97.67
2022-10-23T00:03:54.960Z,98.58
2022-10-23T00:06:23.114Z,99.43
2022-10-23T00:08:51.461Z,99.99
2022-10-23T00:11:23.119Z,99.41
2022-10-23T00:13:52.077Z,98.50
2022-10-23T00:16:20.174Z,98.17
2022-10-23T00:18:48.205Z,98.41
2022-10-23T00:21:18.569Z,98.88
2022-10-23T00:23:47.523Z,99.16
2022-10-23T00:26:16.282Z,100.00
2022-10-23T00:28:45.357Z,100.00
2022-10-23T00:31:14.326Z,100.00
2022-10-23T00:33:43.143Z,100.00
2022-10-23T00:36:14.116Z,100.00
2022-10-23T00:38:44.411Z,100.00
2022-10-23T00:41:18.618Z,100.00
2022-10-23T00:44:02.215Z,100.00
2022-10-23T00:46:31.139Z,100.00
2022-10-23T00:48:59.836Z,100.00
2022-10-23T00:51:31.090Z,100.00
2022-10-23T00:56:52.762Z,100.00
2022-10-23T00:59:20.799Z,100.00
2022-10-23T01:01:49.289Z,100.00
2022-10-23T01:04:18.174Z,100.00
2022-10-23T01:06:55.306Z,100.00
2022-10-23T01:09:30.420Z,100.00
2022-10-23T01:12:04.441Z,100.00
2022-10-23T01:14:40.934Z,100.00
2022-10-23T01:17:13.359Z,100.00
2022-10-23T01:19:53.283Z,100.00
2022-10-23T01:22:38.608Z,100.00
2022-10-23T01:25:21.944Z,100.00
2022-10-23T01:27:57.456Z,100.00
2022-10-23T01:30:25.537Z,100.00
2022-10-23T01:32:57.923Z,100.00
2022-10-23T01:35:30.443Z,100.00
2022-10-23T01:38:07.467Z,100.00
2022-10-23T01:40:39.732Z,100.00
2022-10-23T01:43:14.320Z,100.00
2022-10-23T01:45:45.506Z,100.00
2022-10-23T01:48:17.879Z,100.00
2022-10-23T01:50:47.892Z,100.00
2022-10-23T01:53:16.304Z,100.00
2022-10-23T01:55:45.526Z,100.00
2022-10-23T01:58:17.445Z,100.00
2022-10-23T02:00:48.429Z,100.00
2022-10-23T02:03:18.952Z,100.00
2022-10-23T02:05:47.154Z,100.00
2022-10-23T02:08:15.357Z,100.00
2022-10-23T02:10:50.116Z,100.00
2022-10-23T02:13:27.490Z,100.00
2022-10-23T02:16:04.746Z,100.00
2022-10-23T02:18:41.716Z,100.00
2022-10-23T02:21:13.400Z,100.00
2022-10-23T02:23:46.676Z,100.00
2022-10-23T02:26:19.087Z,100.00
2022-10-23T02:28:53.533Z,100.00
2022-10-23T02:31:24.425Z,100.00
2022-10-23T02:33:52.699Z,100.00
2022-10-23T02:36:21.331Z,100.00
2022-10-23T02:38:49.424Z,100.00
2022-10-23T02:41:25.191Z,100.00
2022-10-23T02:44:09.643Z,100.00
2022-10-23T02:46:50.487Z,100.00
2022-10-23T02:49:25.824Z,100.00
2022-10-23T02:52:01.029Z,100.00
2022-10-23T02:54:42.783Z,98.77
2022-10-23T02:57:21.759Z,99.55
2022-10-23T03:00:02.092Z,98.27
2022-10-23T03:02:37.919Z,98.21
2022-10-23T03:05:10.182Z,98.91
2022-10-23T03:07:40.170Z,97.17
2022-10-23T03:10:10.204Z,95.80
2022-10-23T03:12:38.739Z,95.74
2022-10-23T03:15:09.745Z,94.53
2022-10-23T03:17:37.766Z,93.15
2022-10-23T03:20:06.166Z,93.44
2022-10-23T03:22:34.516Z,93.15
2022-10-23T03:25:02.527Z,91.85
2022-10-23T03:27:30.602Z,91.47
2022-10-23T03:29:58.762Z,90.72
2022-10-23T03:32:28.266Z,90.41
2022-10-23T03:34:56.281Z,89.52
2022-10-23T03:37:24.565Z,88.57
2022-10-23T03:39:53.172Z,87.13
2022-10-23T03:42:21.346Z,86.98
2022-10-23T03:44:49.647Z,85.20
2022-10-23T03:47:17.680Z,83.75
2022-10-23T03:49:47.127Z,82.73
2022-10-23T03:52:15.277Z,81.43
2022-10-23T03:54:43.378Z,81.20
2022-10-23T03:57:11.408Z,81.85
2022-10-23T03:59:39.663Z,81.35
2022-10-23T04:02:07.853Z,82.38
2022-10-23T04:04:36.207Z,81.83
2022-10-23T04:07:05.710Z,82.50
2022-10-23T04:09:33.736Z,83.54
2022-10-23T04:12:01.849Z,82.59
2022-10-23T04:14:30.135Z,81.34
2022-10-23T04:16:59.355Z,81.71
2022-10-23T04:19:27.592Z,81.47
2022-10-23T04:21:57.367Z,81.79
2022-10-23T04:24:27.541Z,81.15
2022-10-23T04:26:56.338Z,81.47
2022-10-23T04:29:24.765Z,81.59
2022-10-23T04:31:53.184Z,80.67
2022-10-23T04:34:21.197Z,80.16
2022-10-23T04:36:49.201Z,79.81
2022-10-23T04:39:17.214Z,79.65
2022-10-23T04:41:46.598Z,79.92
2022-10-23T04:44:14.888Z,79.10
2022-10-23T04:46:42.936Z,77.80
2022-10-23T04:49:10.984Z,77.16
2022-10-23T04:51:39.419Z,76.25
2022-10-23T04:54:07.446Z,75.54
2022-10-23T04:56:35.796Z,74.22
2022-10-23T05:01:39.266Z,71.20
2022-10-23T05:04:07.609Z,70.26
2022-10-23T05:06:35.618Z,69.16
2022-10-23T05:09:03.732Z,67.42
2022-10-23T05:11:31.825Z,66.62
2022-10-23T05:13:59.966Z,65.53
2022-10-23T05:16:37.329Z,65.27
2022-10-23T05:19:07.417Z,64.92
2022-10-23T05:21:37.097Z,64.02
2022-10-23T05:24:05.807Z,64.07
2022-10-23T05:26:34.080Z,63.45
2022-10-23T05:29:02.142Z,62.93
2022-10-23T05:31:32.435Z,62.61
2022-10-23T05:34:02.156Z,62.01
2022-10-23T05:36:30.355Z,60.69
2022-10-23T05:38:59.173Z,59.78
2022-10-23T05:41:27.299Z,58.51
2022-10-23T05:43:55.394Z,57.69
2022-10-23T05:46:24.234Z,56.75
2022-10-23T05:48:54.271Z,55.97
2022-10-23T05:51:23.361Z,54.80
2022-10-23T05:53:53.058Z,54.05
2022-10-23T05:56:21.162Z,53.51
2022-10-23T05:58:49.357Z,52.52
2022-10-23T06:01:19.083Z,51.60
2022-10-23T06:03:47.321Z,50.51
2022-10-23T06:06:16.807Z,49.69
2022-10-23T06:08:44.998Z,48.76
2022-10-23T06:11:15.429Z,48.24
2022-10-23T06:13:44.814Z,47.48
2022-10-23T06:16:13.989Z,47.24
2022-10-23T06:18:43.064Z,47.08
2022-10-23T06:21:12.020Z,46.67
2022-10-23T06:23:42.789Z,47.13
2022-10-23T06:26:13.660Z,47.49
2022-10-23T06:28:43.087Z,46.75
2022-10-23T06:31:13.094Z,46.08
2022-10-23T06:33:42.383Z,45.83
2022-10-23T06:36:11.601Z,45.20
2022-10-23T06:38:41.300Z,44.87
2022-10-23T06:41:18.075Z,45.05
2022-10-23T06:43:48.912Z,44.45
2022-10-23T06:46:17.778Z,44.30
2022-10-23T06:48:46.480Z,44.05
2022-10-23T06:51:16.769Z,43.97
2022-10-23T06:53:47.502Z,43.91
2022-10-23T06:56:15.708Z,44.03
2022-10-23T06:58:43.719Z,44.22
2022-10-23T07:01:14.274Z,44.34
2022-10-23T07:03:42.577Z,44.67
2022-10-23T07:06:12.486Z,44.57
2022-10-23T07:08:40.583Z,44.53
2022-10-23T07:11:11.948Z,44.87
2022-10-23T07:13:40.684Z,45.29
2022-10-23T07:16:13.694Z,44.87
2022-10-23T07:18:42.444Z,45.07
2022-10-23T07:21:11.121Z,45.26
2022-10-23T07:23:39.217Z,45.50
2022-10-23T07:26:10.562Z,45.19
2022-10-23T07:28:38.943Z,45.14
2022-10-23T07:31:07.344Z,45.02
2022-10-23T07:33:35.478Z,44.78
2022-10-23T07:36:05.978Z,45.02
2022-10-23T07:38:34.499Z,45.10
2022-10-23T07:41:03.348Z,45.34
2022-10-23T07:43:34.027Z,45.39
2022-10-23T07:46:02.366Z,44.77
2022-10-23T07:48:30.715Z,44.92
2022-10-23T07:51:01.972Z,45.04
2022-10-23T07:53:30.681Z,44.95
2022-10-23T07:56:00.767Z,44.83
2022-10-23T07:58:30.273Z,44.38
2022-10-23T08:01:02.639Z,44.83
2022-10-23T08:03:32.630Z,44.70
2022-10-23T08:06:01.312Z,44.74
2022-10-23T08:08:29.402Z,45.10
2022-10-23T08:10:57.495Z,45.56
2022-10-23T08:13:25.572Z,46.04
2022-10-23T08:15:54.471Z,45.60
2022-10-23T08:18:23.945Z,46.06
2022-10-23T08:20:53.008Z,45.92
2022-10-23T08:23:21.520Z,45.27
2022-10-23T08:25:50.099Z,45.27
2022-10-23T08:28:18.138Z,46.50
2022-10-23T08:30:46.207Z,47.25
2022-10-23T08:33:14.293Z,47.93
2022-10-23T08:35:43.819Z,47.72
2022-10-23T08:38:12.067Z,47.10
2022-10-23T08:40:44.605Z,47.43
2022-10-23T08:43:19.001Z,48.08
2022-10-23T08:45:50.905Z,48.29
2022-10-23T08:48:26.554Z,48.40
2022-10-23T08:50:59.425Z,48.60
2022-10-23T08:53:33.862Z,48.12
2022-10-23T08:56:05.771Z,47.96
2022-10-23T08:58:41.404Z,48.21
2022-10-23T09:01:28.758Z,47.90
2022-10-23T09:03:57.888Z,47.75
2022-10-23T09:06:36.448Z,47.54
2022-10-23T09:09:21.976Z,47.22
2022-10-23T09:12:01.427Z,46.99
2022-10-23T09:14:47.352Z,46.02
2022-10-23T09:17:24.784Z,45.89
2022-10-23T09:20:00.528Z,45.02
2022-10-23T09:22:30.767Z,45.75
2022-10-23T09:24:58.920Z,45.34
2022-10-23T09:27:27.030Z,45.04
2022-10-23T09:29:56.703Z,45.02
2022-10-23T09:32:38.002Z,44.63
2022-10-23T09:35:07.521Z,44.41
2022-10-23T09:37:46.559Z,44.80
2022-10-23T09:40:19.592Z,44.23
2022-10-23T09:42:56.763Z,44.13
2022-10-23T09:45:27.833Z,43.65
2022-10-23T09:48:13.640Z,43.59
2022-10-23T09:50:50.717Z,43.93
2022-10-23T09:53:26.160Z,42.96
2022-10-23T09:55:56.932Z,43.06
2022-10-23T09:58:31.770Z,43.10
2022-10-23T10:01:00.449Z,43.22
2022-10-23T10:03:29.015Z,42.98
2022-10-23T10:06:00.677Z,43.67
2022-10-23T10:08:41.949Z,43.83
2022-10-23T10:11:17.359Z,42.51
2022-10-23T10:14:06.865Z,41.78
2022-10-23T10:16:44.164Z,40.34
2022-10-23T10:19:32.746Z,40.51
2022-10-23T10:22:10.271Z,40.26
2022-10-23T10:24:49.037Z,40.34
2022-10-23T10:27:27.735Z,39.68
2022-10-23T10:30:05.024Z,39.12
2022-10-23T10:32:41.741Z,39.32
2022-10-23T10:35:25.115Z,39.20
2022-10-23T10:38:16.171Z,38.83
2022-10-23T10:40:53.058Z,36.59
2022-10-23T10:43:35.077Z,37.57
2022-10-23T10:46:12.563Z,38.91
2022-10-23T10:48:50.577Z,37.52
2022-10-23T10:51:30.023Z,36.79
2022-10-23T10:54:23.032Z,37.31
2022-10-23T10:56:52.750Z,36.68
2022-10-23T10:59:25.834Z,35.99
2022-10-23T11:01:59.331Z,34.49
2022-10-23T11:04:35.579Z,34.94
2022-10-23T11:07:10.187Z,34.32
2022-10-23T11:09:40.704Z,34.57
2022-10-23T11:12:19.300Z,35.18
2022-10-23T11:14:48.518Z,34.41
2022-10-23T11:17:24.381Z,35.22
2022-10-23T11:20:04.391Z,35.25
2022-10-23T11:22:38.307Z,34.88
2022-10-23T11:25:28.890Z,33.88
2022-10-23T11:28:14.667Z,34.04
2022-10-23T11:31:01.035Z,33.89
2022-10-23T11:33:55.327Z,33.72
2022-10-23T11:36:43.739Z,33.68
2022-10-23T11:39:27.288Z,33.91
2022-10-23T11:41:57.512Z,34.22
2022-10-23T11:44:40.726Z,34.32
2022-10-23T11:47:35.024Z,33.36
2022-10-23T11:50:27.912Z,33.47
2022-10-23T11:53:13.654Z,33.36
2022-10-23T11:55:59.182Z,32.98
2022-10-23T11:58:41.404Z,33.33
2022-10-23T12:01:26.653Z,32.62
2022-10-23T12:03:58.856Z,32.89
2022-10-23T12:06:30.081Z,33.49
2022-10-23T12:09:02.751Z,33.61
2022-10-23T12:11:43.478Z,33.58
2022-10-23T12:14:29.611Z,33.64
2022-10-23T12:16:59.592Z,33.28
2022-10-23T12:19:29.844Z,32.83
2022-10-23T12:22:02.152Z,33.26
2022-10-23T12:25:01.296Z,33.28
2022-10-23T12:27:36.890Z,33.22
2022-10-23T12:30:19.662Z,33.49
2022-10-23T12:33:11.885Z,33.42
2022-10-23T12:36:13.431Z,33.30
2022-10-23T12:38:46.523Z,33.50
2022-10-23T12:41:18.939Z,33.81
2022-10-23T12:43:54.189Z,33.71
2022-10-23T12:46:37.834Z,33.73
2022-10-23T12:49:15.643Z,32.75
2022-10-23T12:51:43.799Z,32.91
2022-10-23T12:54:17.834Z,32.60
2022-10-23T12:56:46.465Z,32.32
2022-10-23T12:59:18.694Z,32.59
2022-10-23T13:01:52.592Z,33.01
2022-10-23T13:04:30.119Z,32.49
2022-10-23T13:07:00.285Z,32.57
2022-10-23T13:09:32.275Z,32.92
2022-10-23T13:12:05.028Z,32.80
2022-10-23T13:14:39.343Z,33.35
2022-10-23T13:17:12.397Z,33.46
2022-10-23T13:19:41.882Z,33.67
2022-10-23T13:22:21.271Z,33.58
2022-10-23T13:24:49.832Z,33.89
2022-10-23T13:27:34.008Z,33.50
2022-10-23T13:30:03.981Z,33.67
2022-10-23T13:32:34.212Z,33.82
2022-10-23T13:35:20.420Z,33.94
2022-10-23T13:37:51.018Z,33.09
2022-10-23T13:40:25.115Z,33.44
2022-10-23T13:42:54.862Z,33.35
2022-10-23T13:45:25.096Z,32.74
2022-10-23T13:47:53.342Z,32.81
2022-10-23T13:50:23.812Z,33.02
2022-10-23T13:52:53.187Z,32.99
2022-10-23T13:55:25.064Z,33.28
2022-10-23T13:57:53.201Z,33.28
2022-10-23T14:00:21.529Z,32.98
2022-10-23T14:02:49.668Z,33.09
2022-10-23T14:05:17.773Z,33.29
2022-10-23T14:07:48.018Z,33.32
2022-10-23T14:10:16.223Z,33.58
2022-10-23T14:12:45.310Z,33.48
2022-10-23T14:15:13.660Z,33.59
2022-10-23T14:17:41.728Z,33.57
2022-10-23T14:20:11.905Z,33.86
2022-10-23T14:22:40.018Z,33.78
2022-10-23T14:25:10.039Z,33.82
2022-10-23T14:27:38.164Z,33.66
2022-10-23T14:30:07.570Z,33.41
2022-10-23T14:32:35.688Z,33.68
2022-10-23T14:35:04.117Z,33.78
2022-10-23T14:37:32.497Z,34.01
2022-10-23T14:40:00.832Z,33.89
2022-10-23T14:42:34.385Z,33.95
2022-10-23T14:45:02.885Z,33.75
2022-10-23T14:47:31.182Z,34.55
2022-10-23T14:49:59.197Z,34.16
2022-10-23T14:52:27.410Z,34.29
2022-10-23T14:54:56.153Z,33.98
2022-10-23T14:57:24.303Z,33.96
2022-10-23T14:59:53.812Z,34.74
2022-10-23T15:02:21.905Z,34.74
2022-10-23T15:04:50.150Z,35.11
2022-10-23T15:07:18.357Z,35.13
2022-10-23T15:09:46.440Z,35.37
2022-10-23T15:12:14.510Z,35.19
2022-10-23T15:14:42.662Z,35.46
2022-10-23T15:17:15.803Z,35.70
2022-10-23T15:19:44.016Z,35.96
2022-10-23T15:22:12.083Z,36.35
2022-10-23T15:24:40.230Z,36.61
2022-10-23T15:29:41.638Z,36.97
2022-10-23T15:32:13.002Z,37.08
2022-10-23T15:34:43.104Z,37.44
2022-10-23T15:37:12.775Z,37.79
2022-10-23T15:39:41.008Z,37.77
2022-10-23T15:42:09.981Z,38.14
2022-10-23T15:44:38.572Z,38.24
2022-10-23T15:47:06.889Z,38.72
2022-10-23T15:49:38.267Z,38.98
2022-10-23T15:54:40.624Z,40.06
2022-10-23T15:57:08.769Z,40.37
2022-10-23T15:59:37.031Z,40.77
2022-10-23T16:02:05.525Z,41.23
2022-10-23T16:04:35.539Z,41.22
2022-10-23T16:07:05.842Z,40.60
2022-10-23T16:09:34.254Z,40.70
2022-10-23T16:12:04.054Z,40.58
2022-10-23T16:14:32.359Z,40.52
2022-10-23T16:17:00.600Z,40.50
2022-10-23T16:19:28.992Z,40.49
2022-10-23T16:21:57.327Z,40.74
2022-10-23T16:24:26.988Z,40.68
2022-10-23T16:26:56.517Z,40.75
2022-10-23T16:29:25.718Z,40.95
2022-10-23T16:31:55.479Z,41.08
2022-10-23T16:34:23.784Z,41.35
2022-10-23T16:36:51.898Z,41.24
2022-10-23T16:39:21.790Z,41.28
2022-10-23T16:41:51.310Z,41.23
2022-10-23T16:44:19.727Z,41.17
2022-10-23T16:46:47.828Z,41.00
2022-10-23T16:49:15.892Z,41.38
2022-10-23T16:51:43.922Z,41.41
2022-10-23T16:54:12.180Z,41.94
2022-10-23T16:56:40.565Z,42.46
2022-10-23T16:59:11.441Z,42.71
2022-10-23T17:01:39.776Z,43.30
2022-10-23T17:04:08.501Z,43.54
2022-10-23T17:06:37.258Z,43.57
2022-10-23T17:09:06.844Z,43.20
2022-10-23T17:11:37.497Z,43.38
2022-10-23T17:14:08.352Z,42.71
2022-10-23T17:16:40.579Z,42.58
2022-10-23T17:19:20.720Z,42.84
2022-10-23T17:21:59.203Z,43.21
2022-10-23T17:24:27.472Z,43.68
2022-10-23T17:26:56.221Z,44.03
2022-10-23T17:29:24.934Z,44.08
2022-10-23T17:31:55.380Z,44.15
2022-10-23T17:34:24.948Z,44.31
2022-10-23T17:36:55.825Z,44.43
2022-10-23T17:39:25.998Z,44.65
2022-10-23T17:41:54.271Z,44.76
2022-10-23T17:44:23.783Z,45.07
2022-10-23T17:46:53.970Z,45.27
2022-10-23T17:49:24.962Z,45.41
2022-10-23T17:51:54.181Z,45.84
2022-10-23T17:54:23.258Z,46.22
2022-10-23T17:56:51.856Z,46.13
2022-10-23T17:59:20.093Z,46.61
2022-10-23T18:01:50.234Z,47.07
2022-10-23T18:04:20.159Z,47.20
2022-10-23T18:06:53.618Z,47.20
2022-10-23T18:09:23.108Z,47.72
2022-10-23T18:11:51.763Z,47.71
2022-10-23T18:14:23.085Z,47.93
2022-10-23T18:16:52.646Z,47.98
2022-10-23T18:19:20.882Z,48.13
2022-10-23T18:21:50.893Z,48.22
2022-10-23T18:24:20.293Z,48.89
2022-10-23T18:26:49.325Z,49.61
2022-10-23T18:29:18.729Z,49.72
2022-10-23T18:31:49.148Z,50.37
2022-10-23T18:34:20.490Z,50.92
2022-10-23T18:36:52.108Z,51.23
2022-10-23T18:39:23.720Z,51.18
2022-10-23T18:41:54.495Z,51.30
2022-10-23T18:44:24.648Z,51.69
2022-10-23T18:46:53.444Z,51.67
2022-10-23T18:49:21.617Z,51.92
2022-10-23T18:51:52.163Z,52.10
2022-10-23T18:54:22.471Z,52.25
2022-10-23T18:56:50.875Z,52.53
2022-10-23T18:59:22.725Z,52.72
2022-10-23T19:01:51.523Z,52.88
2022-10-23T19:04:20.489Z,53.05
2022-10-23T19:06:51.530Z,53.06
2022-10-23T19:09:21.073Z,53.18
2022-10-23T19:11:49.510Z,53.58
2022-10-23T19:14:18.039Z,53.82
2022-10-23T19:16:56.044Z,54.29
2022-10-23T19:19:28.973Z,54.43
2022-10-23T19:21:58.801Z,54.54
2022-10-23T19:24:32.448Z,54.43
2022-10-23T19:27:02.960Z,54.46
2022-10-23T19:29:31.590Z,54.23
2022-10-23T19:32:01.564Z,54.42
2022-10-23T19:34:29.726Z,54.36
2022-10-23T19:36:59.249Z,54.57
2022-10-23T19:39:27.819Z,54.76
2022-10-23T19:41:56.212Z,54.99
2022-10-23T19:44:24.333Z,54.90
2022-10-23T19:46:52.707Z,54.89
2022-10-23T19:49:23.956Z,54.26
2022-10-23T19:51:52.650Z,54.50
2022-10-23T19:54:24.620Z,54.81
2022-10-23T19:56:53.162Z,55.24
2022-10-23T19:59:21.253Z,55.59
2022-10-23T20:01:51.008Z,55.61
2022-10-23T20:04:19.933Z,56.01
2022-10-23T20:06:48.897Z,56.01
2022-10-23T20:09:17.273Z,55.64
2022-10-23T20:11:49.241Z,56.15
2022-10-23T20:14:18.126Z,56.21
2022-10-23T20:16:50.145Z,56.37
2022-10-23T20:19:21.671Z,56.70
2022-10-23T20:21:50.356Z,57.13
2022-10-23T20:24:20.103Z,57.50
2022-10-23T20:26:51.365Z,57.82
2022-10-23T20:29:20.030Z,58.36
2022-10-23T20:31:48.505Z,58.91
2022-10-23T20:34:17.677Z,59.36
2022-10-23T20:36:49.405Z,59.93
2022-10-23T20:39:19.880Z,59.98
2022-10-23T20:41:51.767Z,59.96
2022-10-23T20:44:20.407Z,60.47
2022-10-23T20:46:49.031Z,61.04
2022-10-23T20:49:17.682Z,61.25
2022-10-23T20:51:46.346Z,61.95
2022-10-23T20:54:14.348Z,62.21
2022-10-23T20:56:42.514Z,62.75
2022-10-23T20:59:15.564Z,63.05
2022-10-23T21:01:45.871Z,63.01
2022-10-23T21:04:15.734Z,63.66
2022-10-23T21:07:08.426Z,64.13
2022-10-23T21:09:32.405Z,64.63
2022-10-23T21:12:00.431Z,65.02
2022-10-23T21:14:30.471Z,65.88
2022-10-23T21:16:58.668Z,66.51
2022-10-23T21:19:26.841Z,66.94
2022-10-23T21:21:55.695Z,67.17
2022-10-23T21:24:24.181Z,67.45
2022-10-23T21:26:52.225Z,67.81
2022-10-23T21:29:20.576Z,67.44
2022-10-23T21:31:55.359Z,67.99
2022-10-23T21:34:23.491Z,68.39
2022-10-23T21:39:39.723Z,69.32
2022-10-23T21:42:08.042Z,69.20
2022-10-23T21:44:36.170Z,69.40
2022-10-23T21:47:05.975Z,69.64
2022-10-23T21:49:33.949Z,69.84
2022-10-23T21:52:19.047Z,69.74
2022-10-23T21:54:52.962Z,70.08
2022-10-23T21:57:21.760Z,70.38
2022-10-23T21:59:49.883Z,70.48
2022-10-23T22:02:19.560Z,70.60
2022-10-23T22:04:47.637Z,70.57
2022-10-23T22:07:15.940Z,70.89
2022-10-23T22:09:44.632Z,70.83
2022-10-23T22:12:13.146Z,71.72
2022-10-23T22:14:41.189Z,71.71
2022-10-23T22:17:09.563Z,71.98
2022-10-23T22:19:39.086Z,72.62
2022-10-23T22:22:08.017Z,72.72
2022-10-23T22:24:37.312Z,73.06
2022-10-23T22:27:05.421Z,72.86
2022-10-23T22:29:33.497Z,72.71
2022-10-23T22:32:01.571Z,72.95
2022-10-23T22:34:51.865Z,73.18
2022-10-23T22:37:20.871Z,73.60
2022-10-23T22:39:52.041Z,74.64
2022-10-23T22:42:20.271Z,74.79
2022-10-23T22:44:48.346Z,75.06
2022-10-23T22:47:16.409Z,75.31
2022-10-23T22:49:44.413Z,76.19
2022-10-23T22:52:12.477Z,76.55
2022-10-23T22:54:41.975Z,77.21
2022-10-23T22:57:10.048Z,77.47
2022-10-23T22:59:38.103Z,78.89
2022-10-23T23:02:06.461Z,78.45
2022-10-23T23:04:38.602Z,78.86
2022-10-23T23:07:07.596Z,79.44
2022-10-23T23:09:38.068Z,79.92
2022-10-23T23:12:08.480Z,80.14
2022-10-23T23:14:36.524Z,80.48
2022-10-23T23:17:04.873Z,80.71
2022-10-23T23:19:33.041Z,81.44
2022-10-23T23:22:01.444Z,81.84
2022-10-23T23:24:29.717Z,81.60
2022-10-23T23:26:57.802Z,81.59
2022-10-23T23:29:28.446Z,81.24
2022-10-23T23:31:56.560Z,80.92
2022-10-23T23:34:24.699Z,81.27
2022-10-23T23:36:52.871Z,81.35
2022-10-23T23:39:20.929Z,81.42
2022-10-23T23:41:49.129Z,81.68
2022-10-23T23:44:17.200Z,81.68
2022-10-23T23:46:46.687Z,81.70
2022-10-23T23:49:14.847Z,81.90
2022-10-23T23:51:44.084Z,82.41
2022-10-23T23:54:12.212Z,82.25
2022-10-23T23:56:40.420Z,81.40
2022-10-23T23:59:08.470Z,81.49
